Etusivu
METAR-TAF:

METAR-TAF

Lentoasemat :

Okayama, Japani

Leveyspiiri: 34-45N, Pituuspiiri: 133-51E, korkeus merenpinnasta: 241 m

Tämänhetkinen sää

Tämä raportti tehtiin 52 minuuttia sitten, kello 23.00 UTC
Tuuli 6 kn lännestä/lounaasta
Lämpötila 17°C
Kosteus 88%
Ilmanpaine 1005 hPa
Näkyvyys: 6000 m
Muutamia pilviä alle 100 ft:n korkeudessa
Hajanaisia pilviä 400 ft:n korkeudessa
Hajonneita pilviä 6000 ft:n korkeudessa
sumuhattaroita

METAR: RJOB 252300Z 25006KT 6000 BCFG FEW000 SCT004 BKN060 17/15 Q1005

Aika: 08:52 (23:52 UTC)

Sääennuste

Tämä raportti tehtiin 43 minuuttia sitten, kello 23.09 UTC
Ennuste voimassa 26. päivästä klo 00 UTC - 27. päivään klo 06 UTC
Tuuli 12 kn lännestä/lounaasta
Näkyvyys 10 km tai enemmän
Muutamia pilviä 2000 ft:n korkeudessa
Hajonneita pilviä 4000 ft:n korkeudessa
Tulossa
26. päivästä klo 07 UTC - 26. päivään klo 09 UTC
Tuuli 10 kn pohjoisesta

TAF: RJOB 252309Z 2600/2706 25012KT 9999 FEW020 BKN040 BECMG 2607/2609 35010KT

Säähavainnot ja -ennusteet yli 4000 lentoasemalta (METAR- ja TAF-raportit).

Käytössä olevat sääasemat on merkitty karttaan keltaisilla ja punaisilla pisteillä.

Aseta hiiri pisteen päälle nähdäksesi sääaseman nimen.

Klikkaa sitten nähdäksesi säähavainnot ja -ennusteet.

Kartan vaihtaminen: klikkaa mustalla rastilla varustettuja vihreitä pisteitä, niin voit zoomata sisään; viivalla varustettua vihreää pistettä, niin voit zoomata ulos tai vihreitä nuolia, niin pääset viereisille kartoille.


METAR-TAF: